Time;durP1;ratioP1;P1;durP2;ratioP2;P2;SDS_P1;SDS_P2;PMS_P1;PMS_P2;Temp;Humidity;BMP_temperature;BMP_pressure;BME280_temperature;BME280_humidity;BME280_pressure;Samples;Min_cycle;Max_cycle;Signal;HPM_P1;HPM_P2
2022/06/13 00:01:19;;;;;;;1.50;1.30;;;;;;;21.30;57.89;100061.66;1658538;85;21063;-76
2022/06/13 00:03:46;;;;;;;3.65;1.52;;;;;;;21.27;57.85;100060.85;1670745;84;21143;-76
2022/06/13 00:06:13;;;;;;;1.32;1.10;;;;;;;21.25;57.85;100054.05;1674645;84;21024;-76
2022/06/13 00:08:39;;;;;;;1.12;1.02;;;;;;;21.23;57.88;100054.34;1690258;83;21101;-76
2022/06/13 00:11:11;;;;;;;1.67;1.65;;;;;;;21.19;57.95;100056.76;1666060;84;21107;-76
2022/06/13 00:13:39;;;;;;;2.22;2.02;;;;;;;21.17;58.04;100061.63;1702695;83;21547;-76
2022/06/13 00:16:05;;;;;;;1.10;1.10;;;;;;;21.13;58.08;100057.80;1687636;83;21093;-77
2022/06/13 00:18:33;;;;;;;2.40;1.10;;;;;;;21.12;58.13;100062.96;1684761;83;21061;-76
2022/06/13 00:21:01;;;;;;;4.25;1.02;;;;;;;21.12;58.28;100061.61;1681591;83;21023;-76
2022/06/13 00:23:27;;;;;;;;;;;;;;;21.10;58.65;100056.99;1707259;82;21024;-76
2022/06/13 00:25:53;;;;;;;2.45;2.00;;;;;;;;;;1706940;83;20135;-76
2022/06/13 00:28:19;;;;;;;;;;;;;;;21.02;59.57;100053.45;1719953;80;21022;-76
2022/06/13 00:30:46;;;;;;;1.70;1.60;;;;;;;21.01;60.18;100055.87;1717907;80;20105;-78
2022/06/13 00:33:12;;;;;;;2.22;2.10;;;;;;;20.92;61.59;100043.91;1720369;83;21006;-77
2022/06/13 00:35:38;;;;;;;;;;;;;;;20.91;62.49;100047.71;1691621;83;21026;-77
2022/06/13 00:38:05;;;;;;;2.50;2.40;;;;;;;20.89;63.63;100048.48;1716397;80;20093;-77
2022/06/13 00:40:34;;;;;;;3.80;2.25;;;;;;;20.83;63.84;100044.94;1715210;80;21022;-79
2022/06/13 00:43:01;;;;;;;2.67;2.47;;;;;;;20.82;64.55;100041.16;1711410;83;21108;-79
2022/06/13 00:45:36;;;;;;;3.30;3.10;;;;;;;20.83;64.82;100048.19;1685974;82;21053;-79
2022/06/13 00:48:04;;;;;;;3.15;2.95;;;;;;;20.83;65.51;100044.13;1695671;83;21115;-77
2022/06/13 00:50:37;;;;;;;3.40;3.30;;;;;;;20.82;66.39;100043.87;1696808;83;21541;-77
2022/06/13 00:53:11;;;;;;;3.72;3.42;;;;;;;20.80;67.24;100046.29;1690850;84;21002;-77
2022/06/13 00:55:52;;;;;;;4.35;3.92;;;;;;;20.77;67.71;100042.74;1694420;83;21620;-78
2022/06/13 00:58:20;;;;;;;4.15;3.80;;;;;;;20.74;68.09;100040.58;1730692;81;21211;-78
2022/06/13 01:00:51;;;;;;;3.50;3.22;;;;;;;20.72;69.09;100040.03;1702873;83;21070;-79
2022/06/13 01:03:19;;;;;;;3.92;3.72;;;;;;;20.70;69.79;100042.19;1685486;84;21537;-77
2022/06/13 01:05:49;;;;;;;7.15;3.98;;;;;;;20.65;70.92;100034.03;1688734;84;21052;-77
2022/06/13 01:08:19;;;;;;;4.17;3.98;;;;;;;20.63;70.88;100037.54;1692121;83;21510;-79
2022/06/13 01:14:05;;;;;;;4.15;3.85;;;;;;;20.56;71.96;100040.98;1694651;84;21045;-78
2022/06/13 01:16:55;;;;;;;7.15;4.30;;;;;;;20.54;71.90;100039.88;1687875;84;21027;-78
2022/06/13 01:19:41;;;;;;;5.00;4.35;;;;;;;20.51;72.30;100043.14;1649806;84;21157;-79
2022/06/13 01:22:31;;;;;;;4.33;3.98;;;;;;;20.50;72.82;100041.49;1691300;84;21076;-77
2022/06/13 01:25:12;;;;;;;4.85;4.45;;;;;;;20.49;72.90;100049.87;1686788;83;21150;-77
2022/06/13 01:28:12;;;;;;;4.42;4.10;;;;;;;20.47;73.03;100050.67;1695329;83;21298;-78
2022/06/13 01:31:12;;;;;;;5.05;4.37;;;;;;;20.46;73.61;100049.05;1688971;83;21084;-75
2022/06/13 01:34:02;;;;;;;7.40;5.55;;;;;;;20.39;74.36;100047.91;1697705;83;21036;-77
2022/06/13 01:37:09;;;;;;;5.35;4.53;;;;;;;20.33;74.60;100052.48;1727539;81;21088;-78
2022/06/13 01:40:14;;;;;;;4.85;4.53;;;;;;;20.30;75.59;100055.69;1722862;83;21098;-78
2022/06/13 01:42:56;;;;;;;6.75;4.53;;;;;;;20.28;75.50;100049.72;1703654;83;21072;-78
2022/06/13 01:46:00;;;;;;;4.85;4.45;;;;;;;20.27;75.68;100056.23;1704192;80;21017;-78
2022/06/13 01:48:53;;;;;;;8.25;4.53;;;;;;;20.26;76.19;100051.88;1671019;85;21003;-79
2022/06/13 01:51:27;;;;;;;4.72;4.42;;;;;;;20.26;75.88;100055.94;1674693;84;21098;-78
2022/06/13 01:54:34;;;;;;;4.35;4.05;;;;;;;20.26;75.53;100061.35;1672423;84;21059;-77
2022/06/13 01:57:42;;;;;;;4.97;3.60;;;;;;;20.26;75.46;100057.30;1697516;83;21098;-76
2022/06/13 02:00:17;;;;;;;3.80;3.60;;;;;;;20.26;75.53;100052.42;1695708;83;21131;-78
2022/06/13 02:03:07;;;;;;;3.83;3.63;;;;;;;20.27;75.13;100061.64;1692629;84;21125;-77
2022/06/13 02:05:45;;;;;;;3.83;3.62;;;;;;;20.28;74.75;100045.66;1698619;84;21062;-78
2022/06/13 02:08:23;;;;;;;3.92;3.62;;;;;;;20.29;74.00;100055.98;1691486;83;21618;-79
2022/06/13 02:10:56;;;;;;;3.12;2.83;;;;;;;20.25;73.57;100054.33;1692074;84;21129;-75
2022/06/13 02:13:37;;;;;;;3.58;3.37;;;;;;;20.27;73.26;100051.33;1697033;83;21145;-75
2022/06/13 02:16:15;;;;;;;6.12;3.72;;;;;;;20.29;73.22;100053.27;1696005;84;21050;-78
2022/06/13 02:19:07;;;;;;;8.10;3.92;;;;;;;20.37;74.30;100052.23;1692000;84;21044;-77
2022/06/13 02:21:45;;;;;;;4.20;3.90;;;;;;;20.59;74.38;100053.46;1695696;84;21135;-76
2022/06/13 02:24:17;;;;;;;4.83;3.55;;;;;;;20.92;73.93;100054.20;1725356;83;21576;-76
2022/06/13 02:26:49;;;;;;;3.95;3.55;;;;;;;21.27;72.25;100050.55;1725727;81;22374;-76
2022/06/13 02:29:33;;;;;;;3.52;3.33;;;;;;;21.58;70.48;100052.27;1723600;83;21053;-77
2022/06/13 02:32:07;;;;;;;2.85;2.65;;;;;;;21.88;68.96;100049.33;1725368;83;21085;-77
2022/06/13 02:34:45;;;;;;;2.60;2.50;;;;;;;22.12;65.32;100050.16;1716425;83;21628;-78
2022/06/13 02:37:25;;;;;;;4.37;2.80;;;;;;;22.29;64.31;100053.97;1719004;83;21082;-77
2022/06/13 02:40:12;;;;;;;5.03;4.78;;;;;;;22.57;62.96;100055.29;1715858;82;21082;-78
2022/06/13 02:43:00;;;;;;;2.98;2.40;;;;;;;22.85;61.02;100054.37;1674666;85;21089;-78
2022/06/13 02:45:31;;;;;;;3.90;3.12;;;;;;;23.10;58.99;100048.08;1720185;83;21058;-77
2022/06/13 02:48:21;;;;;;;2.25;2.02;;;;;;;23.25;58.29;100047.19;1722518;83;21127;-75
2022/06/13 02:51:32;;;;;;;5.20;2.55;;;;;;;23.36;56.64;100046.05;1700325;83;21182;-77
2022/06/13 02:54:48;;;;;;;3.05;1.98;;;;;;;23.35;56.17;100052.56;1722488;83;21054;-78
2022/06/13 02:57:44;;;;;;;6.85;2.02;;;;;;;23.51;55.75;100047.31;1724350;82;21181;-78
2022/06/13 03:00:26;;;;;;;4.58;1.80;;;;;;;23.88;54.56;100050.62;1717774;82;22463;-78
2022/06/13 03:03:13;;;;;;;3.92;2.40;;;;;;;24.12;54.07;100052.61;1718812;83;21607;-78
2022/06/13 03:06:04;;;;;;;5.45;1.80;;;;;;;24.40;52.54;100052.36;1720768;83;21111;-78
2022/06/13 03:08:56;;;;;;;2.40;2.30;;;;;;;24.66;51.87;100045.56;1729807;83;21129;-78
2022/06/13 03:11:57;;;;;;;6.30;2.62;;;;;;;24.95;51.19;100055.59;1720343;81;21993;-77
2022/06/13 03:15:02;;;;;;;1.57;1.55;;;;;;;25.29;50.44;100053.84;1688689;84;21062;-80
2022/06/13 03:17:37;;;;;;;1.90;1.80;;;;;;;25.66;49.24;100050.30;1670572;85;21534;-68
2022/06/13 03:20:17;;;;;;;1.67;1.57;;;;;;;25.83;48.64;100058.77;1674610;84;21177;-75
2022/06/13 03:23:00;;;;;;;1.52;1.35;;;;;;;26.05;48.11;100057.37;1718727;81;21096;-74
2022/06/13 03:25:56;;;;;;;1.20;1.20;;;;;;;26.18;47.59;100059.33;1685187;83;21120;-70
2022/06/13 03:28:38;;;;;;;2.25;1.20;;;;;;;26.34;47.01;100056.33;1717512;83;21382;-67
2022/06/13 03:31:25;;;;;;;1.40;1.30;;;;;;;26.52;46.58;100054.08;1717956;83;21069;-66
2022/06/13 03:33:56;;;;;;;1.30;1.30;;;;;;;26.71;45.91;100054.56;1677689;84;21616;-67
2022/06/13 03:36:49;;;;;;;1.20;1.10;;;;;;;26.74;46.20;100054.77;1678202;85;21066;-71
2022/06/13 03:39:21;;;;;;;4.78;1.98;;;;;;;26.83;46.37;100059.55;1680196;85;21514;-66
2022/06/13 03:41:59;;;;;;;2.02;1.82;;;;;;;26.92;46.94;100056.36;1672954;85;21088;-67
2022/06/13 03:44:40;;;;;;;2.80;2.70;;;;;;;26.92;47.54;100061.26;1662783;83;20975;-67
2022/06/13 03:47:15;;;;;;;1.80;1.70;;;;;;;26.95;47.70;100063.36;1705695;83;21526;-67
2022/06/13 03:49:56;;;;;;;2.80;1.98;;;;;;;27.17;48.04;100066.75;1691609;83;22398;-68
2022/06/13 03:52:26;;;;;;;2.42;2.33;;;;;;;27.37;47.50;100065.53;1709860;83;21081;-66
2022/06/13 03:55:04;;;;;;;3.90;2.15;;;;;;;27.43;47.33;100065.43;1692128;83;21033;-67
2022/06/13 03:57:54;;;;;;;4.05;3.67;;;;;;;27.24;48.47;100066.34;1718010;83;21125;-67
2022/06/13 04:00:29;;;;;;;2.85;2.65;;;;;;;27.01;49.28;100064.07;1710166;83;21237;-75
2022/06/13 04:02:55;;;;;;;5.70;2.70;;;;;;;27.06;49.42;100068.64;1704701;83;21039;-64
2022/06/13 04:05:37;;;;;;;5.40;3.42;;;;;;;27.30;48.88;100063.77;1712157;83;21044;-67
2022/06/13 04:08:06;;;;;;;2.80;2.67;;;;;;;27.53;48.24;100072.83;1705938;83;21106;-67
2022/06/13 04:10:38;;;;;;;2.98;2.77;;;;;;;27.71;47.48;100077.11;1720880;83;21353;-68
2022/06/13 04:13:22;;;;;;;2.70;2.50;;;;;;;27.67;47.56;100077.45;1717901;83;21525;-68
2022/06/13 04:16:09;;;;;;;2.45;2.35;;;;;;;27.75;46.80;100078.91;1722801;83;21093;-66
2022/06/13 04:18:53;;;;;;;3.62;2.58;;;;;;;27.79;46.77;100076.93;1723685;82;21134;-66
2022/06/13 04:21:28;;;;;;;2.70;2.50;;;;;;;27.68;47.05;100078.52;1724279;83;21502;-66
2022/06/13 04:24:19;;;;;;;2.30;2.08;;;;;;;27.65;46.97;100083.80;1720200;83;21125;-67
2022/06/13 04:26:55;;;;;;;3.87;2.55;;;;;;;27.79;46.97;100086.52;1722795;83;21034;-70
2022/06/13 04:29:26;;;;;;;2.73;2.63;;;;;;;28.07;46.32;100074.34;1718799;83;21140;-68
2022/06/13 04:32:07;;;;;;;2.25;1.87;;;;;;;28.22;45.76;100079.17;1720499;83;21066;-69
2022/06/13 04:34:41;;;;;;;3.08;2.42;;;;;;;28.28;44.94;100076.56;1715282;82;20989;-68
2022/06/13 04:37:09;;;;;;;2.90;2.33;;;;;;;28.08;44.91;100077.31;1721387;83;21125;-69
2022/06/13 04:39:38;;;;;;;2.75;2.33;;;;;;;27.85;45.65;100077.84;1717146;83;21015;-76
2022/06/13 04:42:08;;;;;;;2.92;2.45;;;;;;;27.87;46.03;100077.55;1711257;83;21015;-79
2022/06/13 04:44:36;;;;;;;4.28;2.27;;;;;;;27.98;45.64;100078.95;1715747;83;21558;-71
2022/06/13 04:47:05;;;;;;;2.65;2.45;;;;;;;27.91;46.09;100070.35;1722047;83;21011;-76
2022/06/13 04:49:37;;;;;;;2.22;1.98;;;;;;;28.02;45.64;100068.17;1718990;83;21046;-78
2022/06/13 04:52:09;;;;;;;2.95;2.65;;;;;;;27.95;45.75;100069.97;1722354;83;21606;-77
2022/06/13 04:55:01;;;;;;;3.52;2.50;;;;;;;27.90;45.91;100072.29;1720378;83;20985;-77
2022/06/13 04:57:29;;;;;;;2.90;2.70;;;;;;;27.94;46.17;100071.11;1714457;83;21918;-77
2022/06/13 04:59:57;;;;;;;4.00;2.60;;;;;;;28.03;45.96;100074.72;1717386;83;21098;-78
2022/06/13 05:02:40;;;;;;;3.02;2.87;;;;;;;28.08;45.26;100080.62;1726915;81;21109;-73
2022/06/13 05:05:29;;;;;;;4.80;2.22;;;;;;;27.94;45.64;100074.65;1707268;83;21086;-76
2022/06/13 05:07:56;;;;;;;4.15;2.92;;;;;;;28.01;45.71;100079.70;1719845;83;21027;-76
2022/06/13 05:10:27;;;;;;;2.67;2.47;;;;;;;28.10;44.97;100076.44;1724532;83;21054;-74
2022/06/13 05:12:55;;;;;;;4.33;2.52;;;;;;;28.08;44.52;100074.57;1722806;83;21020;-80
2022/06/13 05:15:29;;;;;;;6.10;2.90;;;;;;;28.12;43.61;100078.87;1725378;82;21050;-80
2022/06/13 05:18:27;;;;;;;2.42;2.30;;;;;;;28.07;44.11;100085.30;1724195;83;20987;-82
2022/06/13 05:21:29;;;;;;;2.22;1.98;;;;;;;28.02;43.89;100089.52;1707616;83;21634;-79
2022/06/13 05:24:28;;;;;;;3.50;2.42;;;;;;;27.78;44.50;100085.68;1717093;82;21015;-75
2022/06/13 05:26:54;;;;;;;2.47;2.37;;;;;;;27.73;45.48;100086.62;1714578;83;21002;-70
2022/06/13 05:29:20;;;;;;;2.25;1.95;;;;;;;27.90;44.74;100090.66;1714857;83;21192;-71
2022/06/13 05:31:46;;;;;;;5.25;3.52;;;;;;;28.02;45.07;100089.52;1714468;83;21125;-76
2022/06/13 05:34:21;;;;;;;5.35;2.60;;;;;;;28.04;45.45;100093.33;1712112;83;21085;-79
2022/06/13 05:36:47;;;;;;;2.87;2.72;;;;;;;27.95;45.62;100091.34;1708184;83;21062;-77
2022/06/13 05:39:13;;;;;;;2.55;2.45;;;;;;;27.92;45.15;100098.80;1709963;83;20993;-76
2022/06/13 05:41:40;;;;;;;2.27;2.17;;;;;;;27.76;45.29;100096.14;1708899;83;21034;-79
2022/06/13 05:44:06;;;;;;;2.17;2.08;;;;;;;27.60;46.09;100099.80;1711845;83;21039;-77
2022/06/13 05:46:37;;;;;;;3.85;2.80;;;;;;;27.76;45.36;100094.23;1723318;83;21008;-77
2022/06/13 05:49:05;;;;;;;2.25;2.05;;;;;;;28.01;44.94;100095.31;1717813;83;20973;-76
2022/06/13 05:51:31;;;;;;;1.87;1.60;;;;;;;28.08;44.05;100092.95;1718666;83;21570;-76
2022/06/13 05:53:58;;;;;;;2.90;1.77;;;;;;;28.09;42.89;100098.69;1722631;83;21596;-72
2022/06/13 05:56:25;;;;;;;5.05;2.20;;;;;;;28.09;43.06;100094.58;1711328;82;21058;-76
2022/06/13 05:58:53;;;;;;;8.33;2.83;;;;;;;28.17;43.50;100088.34;1713898;83;21921;-78
2022/06/13 06:01:19;;;;;;;2.17;1.87;;;;;;;28.41;42.72;100094.05;1715756;83;21024;-72
2022/06/13 06:03:46;;;;;;;2.60;2.22;;;;;;;28.24;42.74;100092.82;1724334;83;21105;-78
2022/06/13 06:06:21;;;;;;;2.45;2.33;;;;;;;28.02;43.16;100095.00;1714383;83;21054;-75
2022/06/13 06:08:49;;;;;;;2.55;2.45;;;;;;;28.17;43.63;100088.91;1716652;83;21081;-78
2022/06/13 06:11:16;;;;;;;1.20;1.20;;;;;;;28.32;43.20;100085.77;1711979;83;21101;-77
2022/06/13 06:13:42;;;;;;;1.22;1.20;;;;;;;28.45;42.71;100101.33;1720876;83;21058;-74
2022/06/13 06:16:16;;;;;;;3.60;2.40;;;;;;;28.57;41.75;100090.37;1717129;82;21107;-74
2022/06/13 06:18:45;;;;;;;1.00;1.00;;;;;;;28.58;43.35;100092.00;1713274;83;21070;-74
2022/06/13 06:21:11;;;;;;;4.67;0.75;;;;;;;28.40;40.78;100095.16;1722256;83;21023;-72
2022/06/13 06:23:38;;;;;;;3.37;1.15;;;;;;;28.07;40.41;100090.78;1713841;83;21122;-73
2022/06/13 06:26:06;;;;;;;6.08;1.15;;;;;;;27.89;40.69;100089.03;1718416;83;21137;-73
2022/06/13 06:28:34;;;;;;;1.50;0.90;;;;;;;27.94;40.38;100094.39;1713336;82;21077;-73
2022/06/13 06:31:06;;;;;;;1.85;0.60;;;;;;;28.03;39.56;100089.78;1715374;83;21059;-75
2022/06/13 06:33:32;;;;;;;3.72;0.68;;;;;;;27.89;39.55;100084.34;1717860;83;21017;-73
2022/06/13 06:35:58;;;;;;;1.50;0.78;;;;;;;27.82;39.82;100087.24;1722637;83;21074;-76
2022/06/13 06:38:26;;;;;;;0.57;0.40;;;;;;;27.88;39.75;100096.41;1719939;82;21518;-77
2022/06/13 06:40:53;;;;;;;1.57;0.50;;;;;;;27.84;39.46;100085.00;1718726;83;21074;-78
2022/06/13 06:43:20;;;;;;;1.50;1.40;;;;;;;27.86;39.81;100080.85;1716601;83;21335;-75
2022/06/13 06:45:48;;;;;;;0.80;0.55;;;;;;;27.92;39.05;100077.46;1722803;82;21834;-79
2022/06/13 06:48:21;;;;;;;2.12;0.62;;;;;;;27.87;39.07;100083.02;1723172;83;21057;-78
2022/06/13 06:50:49;;;;;;;1.57;0.60;;;;;;;27.63;39.62;100084.11;1713422;83;21036;-79
2022/06/13 06:53:23;;;;;;;1.62;0.57;;;;;;;27.40;40.65;100073.68;1705601;83;21030;-74
2022/06/13 07:01:22;;;;;;;1.25;0.40;;;;;;;27.62;40.17;100070.75;1711708;83;21598;-79
2022/06/13 07:03:48;;;;;;;2.45;0.60;;;;;;;27.69;40.43;100078.78;1718211;83;21621;-78
2022/06/13 07:06:16;;;;;;;0.90;0.90;;;;;;;27.84;40.36;100075.41;1719240;83;21014;-79
2022/06/13 07:08:43;;;;;;;0.80;0.65;;;;;;;28.07;39.65;100077.08;1690672;84;21065;-78
2022/06/13 07:14:00;;;;;;;2.12;0.72;;;;;;;27.91;40.14;100071.72;1718624;83;21005;-76
2022/06/13 07:16:28;;;;;;;0.62;0.62;;;;;;;27.90;39.65;100072.86;1735446;82;21062;-79
2022/06/13 07:18:53;;;;;;;1.20;0.70;;;;;;;28.11;38.95;100078.64;1714090;83;21053;-77
2022/06/13 07:21:21;;;;;;;3.30;0.70;;;;;;;28.07;39.16;100085.30;1725947;83;21002;-78
2022/06/13 07:23:47;;;;;;;0.78;0.72;;;;;;;27.84;39.63;100065.30;1727158;82;21649;-78
2022/06/13 07:26:13;;;;;;;2.60;0.68;;;;;;;27.58;39.89;100070.55;1721770;83;21543;-76
2022/06/13 07:28:39;;;;;;;0.50;0.50;;;;;;;27.35;40.25;100071.05;1721506;83;20995;-78
2022/06/13 07:31:05;;;;;;;0.50;0.50;;;;;;;27.45;40.09;100077.68;1721783;83;21504;-77
2022/06/13 07:33:32;;;;;;;0.80;0.80;;;;;;;27.61;39.43;100074.59;1724791;82;21026;-78
2022/06/13 07:35:58;;;;;;;1.07;0.70;;;;;;;27.71;39.33;100073.80;1709855;83;21022;-77
2022/06/13 07:38:24;;;;;;;0.62;0.40;;;;;;;27.89;38.33;100081.61;1722190;83;21537;-76
2022/06/13 07:40:58;;;;;;;1.95;0.72;;;;;;;27.98;37.34;100071.30;1713286;83;21095;-77
2022/06/13 07:43:37;;;;;;;0.65;0.50;;;;;;;27.74;37.75;100066.32;1711307;83;21578;-77
2022/06/13 07:48:28;;;;;;;;;;;;;;;27.71;38.50;100071.06;1796154;78;22724;-77
2022/06/13 07:50:56;;;;;;;1.37;0.42;;;;;;;27.65;38.11;100070.11;1785299;80;20480;-77
2022/06/13 07:53:22;;;;;;;2.92;0.40;;;;;;;27.69;37.54;100069.73;1776089;80;21026;-77
2022/06/13 07:55:49;;;;;;;1.20;0.40;;;;;;;27.65;36.99;100071.48;1751655;80;21147;-76
2022/06/13 07:58:20;;;;;;;1.30;0.57;;;;;;;27.52;37.14;100069.03;1728487;82;21574;-75
2022/06/13 08:00:50;;;;;;;1.82;0.53;;;;;;;27.46;37.08;100073.01;1730290;82;21551;-78
2022/06/13 08:03:24;;;;;;;2.15;0.30;;;;;;;27.42;36.77;100058.33;1728811;82;21055;-78
2022/06/13 08:05:53;;;;;;;0.45;0.40;;;;;;;27.43;36.60;100066.80;1737783;81;21050;-76
2022/06/13 08:08:20;;;;;;;0.28;0.28;;;;;;;27.40;36.30;100061.94;1723455;82;21025;-75
2022/06/13 08:10:48;;;;;;;1.30;0.20;;;;;;;27.36;36.99;100056.26;1729808;82;21014;-76
2022/06/13 08:13:18;;;;;;;1.30;0.20;;;;;;;27.31;36.67;100054.46;1725806;82;21598;-76
2022/06/13 08:15:45;;;;;;;2.27;0.30;;;;;;;27.37;37.04;100054.59;1724312;82;21027;-75
2022/06/13 08:18:14;;;;;;;1.42;0.30;;;;;;;27.52;36.43;100062.19;1724274;82;21112;-77
2022/06/13 08:20:42;;;;;;;0.20;0.20;;;;;;;27.55;35.05;100062.95;1729119;82;21134;-80
2022/06/13 08:23:12;;;;;;;1.77;0.20;;;;;;;27.56;35.16;100050.89;1709218;82;21034;-78
2022/06/13 08:25:41;;;;;;;0.35;0.35;;;;;;;27.55;35.58;100052.80;1698961;83;20994;-78
2022/06/13 08:28:10;;;;;;;1.27;0.40;;;;;;;27.52;35.40;100055.34;1701293;83;21044;-75
2022/06/13 08:30:41;;;;;;;0.80;0.40;;;;;;;27.49;35.52;100055.41;1698323;83;21130;-77
2022/06/13 08:33:08;;;;;;;0.23;0.20;;;;;;;27.37;35.58;100055.16;1699811;81;21064;-77
2022/06/13 08:35:35;;;;;;;1.95;0.20;;;;;;;27.23;35.50;100057.87;1725817;81;21080;-78
2022/06/13 08:38:03;;;;;;;0.65;0.30;;;;;;;27.13;35.81;100043.86;1726050;81;21010;-78
2022/06/13 08:40:56;;;;;;;0.68;0.40;;;;;;;27.13;36.55;100045.80;1723422;81;21100;-77
2022/06/13 08:43:35;;;;;;;0.53;0.42;;;;;;;27.12;36.58;100054.54;1725182;81;21033;-77
2022/06/13 08:46:16;;;;;;;4.45;0.40;;;;;;;27.04;36.21;100044.89;1694899;81;21066;-75
2022/06/13 08:48:47;;;;;;;0.93;0.37;;;;;;;27.06;36.59;100043.46;1678390;84;21072;-77
2022/06/13 08:51:19;;;;;;;1.07;0.50;;;;;;;27.13;36.24;100038.39;1649587;86;21554;-79
2022/06/13 08:53:59;;;;;;;1.00;0.68;;;;;;;27.25;37.78;100027.47;1675392;84;21546;-77
2022/06/13 08:56:30;;;;;;;0.85;0.30;;;;;;;27.45;38.50;100042.67;1701873;82;21143;-79
2022/06/13 08:59:22;;;;;;;0.50;0.50;;;;;;;27.64;38.40;100039.20;1715947;82;21099;-78
2022/06/13 09:02:02;;;;;;;1.25;1.25;;;;;;;27.82;36.18;100037.95;1690987;82;21145;-76
2022/06/13 09:04:56;;;;;;;1.10;0.50;;;;;;;27.83;36.08;100030.00;1686072;84;21078;-77
2022/06/13 09:07:43;;;;;;;0.40;0.40;;;;;;;27.75;36.53;100032.36;1665793;85;21050;-79
2022/06/13 09:10:21;;;;;;;3.20;0.35;;;;;;;27.61;36.93;100023.95;1676813;85;21103;-77
2022/06/13 09:12:55;;;;;;;0.93;0.50;;;;;;;27.54;37.23;100026.56;1666768;84;22170;-76
2022/06/13 09:15:25;;;;;;;0.60;0.60;;;;;;;27.54;37.23;100021.09;1674611;84;21578;-77
2022/06/13 09:18:03;;;;;;;1.95;0.40;;;;;;;27.57;37.24;100021.02;1666850;84;21121;-78
2022/06/13 09:20:53;;;;;;;1.55;0.30;;;;;;;27.62;36.66;100023.64;1659033;84;21047;-77
2022/06/13 09:23:28;;;;;;;1.75;0.30;;;;;;;27.70;36.33;100020.15;1693441;82;21502;-78
2022/06/13 09:26:16;;;;;;;;;;;;;;;27.76;35.18;100025.77;1714677;82;21528;-77
2022/06/13 09:28:54;;;;;;;1.10;0.28;;;;;;;27.73;34.41;100025.02;1709873;82;20183;-80
2022/06/13 09:31:42;;;;;;;2.20;0.40;;;;;;;27.56;34.25;100020.78;1711666;82;21057;-79
2022/06/13 09:34:23;;;;;;;0.30;0.30;;;;;;;27.40;34.20;100024.42;1698088;82;21176;-78
2022/06/13 09:37:10;;;;;;;0.75;0.30;;;;;;;27.31;34.43;100020.26;1677748;84;21379;-78
2022/06/13 09:39:40;;;;;;;2.33;0.30;;;;;;;27.34;34.02;100012.78;1685300;84;21062;-78
2022/06/13 09:42:36;;;;;;;0.20;0.20;;;;;;;27.38;34.28;100014.34;1681661;83;21117;-77
2022/06/13 09:45:33;;;;;;;0.30;0.30;;;;;;;27.50;34.65;100019.27;1695385;82;21281;-77
2022/06/13 09:48:29;;;;;;;0.50;0.40;;;;;;;27.70;34.55;100016.05;1691086;82;21104;-78
2022/06/13 09:51:21;;;;;;;2.80;1.32;;;;;;;27.91;34.62;100016.95;1705842;82;20991;-81
2022/06/13 09:54:21;;;;;;;3.02;1.32;;;;;;;27.98;36.18;100015.14;1700002;82;21042;-80
2022/06/13 09:57:02;;;;;;;1.77;0.40;;;;;;;27.95;36.94;100016.56;1705670;82;21121;-76
2022/06/13 10:00:00;;;;;;;2.10;0.60;;;;;;;27.92;36.95;100015.84;1701401;82;21085;-80
2022/06/13 10:02:40;;;;;;;1.60;1.27;;;;;;;27.83;37.64;100006.16;1708861;82;21034;-76
2022/06/13 10:05:34;;;;;;;2.45;1.40;;;;;;;27.72;37.84;100011.06;1704818;82;21111;-80
2022/06/13 10:08:35;;;;;;;4.17;0.55;;;;;;;27.64;37.21;100009.66;1701535;82;21034;-78
2022/06/13 10:11:34;;;;;;;2.22;1.95;;;;;;;27.55;37.08;100010.94;1663824;84;21087;-79
2022/06/13 10:14:30;;;;;;;2.40;1.15;;;;;;;27.37;39.14;100010.80;1676148;82;21072;-74
2022/06/13 10:17:11;;;;;;;2.20;2.12;;;;;;;27.21;39.80;100018.27;1708953;82;21149;-80
2022/06/13 10:19:50;;;;;;;1.55;1.10;;;;;;;27.10;40.37;100018.48;1710245;82;21050;-77
2022/06/13 10:22:39;;;;;;;1.30;0.57;;;;;;;27.03;39.45;100025.48;1698209;82;21156;-79
2022/06/13 10:25:34;;;;;;;0.78;0.72;;;;;;;26.90;38.46;100018.38;1680303;84;21220;-79
2022/06/13 10:28:22;;;;;;;0.95;0.70;;;;;;;26.82;38.08;100018.27;1684416;83;21291;-75
2022/06/13 10:31:14;;;;;;;0.85;0.53;;;;;;;26.76;39.17;100012.89;1675109;83;21009;-77
2022/06/13 10:34:20;;;;;;;0.40;0.30;;;;;;;26.73;39.82;100003.13;1690332;82;21059;-80
2022/06/13 10:37:38;;;;;;;1.40;0.70;;;;;;;26.74;39.71;100006.13;1714539;83;21059;-79
2022/06/13 10:40:06;;;;;;;2.25;0.70;;;;;;;26.77;39.52;100002.22;1644056;85;21068;-77
2022/06/13 10:42:36;;;;;;;1.00;0.47;;;;;;;26.87;39.21;99997.66;1694529;82;21585;-77
2022/06/13 10:45:07;;;;;;;0.82;0.23;;;;;;;26.90;39.09;100001.96;1724551;81;21109;-78
2022/06/13 10:48:03;;;;;;;0.60;0.20;;;;;;;26.94;35.69;100002.97;1731229;81;21101;-78
2022/06/13 10:50:52;;;;;;;0.20;0.20;;;;;;;27.01;34.64;99999.80;1736630;81;21203;-77
2022/06/13 10:53:39;;;;;;;3.65;0.30;;;;;;;27.09;34.87;99996.36;1719501;81;21081;-79
2022/06/13 10:56:14;;;;;;;0.45;0.45;;;;;;;27.14;35.80;99990.78;1724573;81;21018;-80
2022/06/13 10:58:52;;;;;;;0.37;0.37;;;;;;;27.17;35.76;99992.88;1688011;82;21525;-80
2022/06/13 11:01:22;;;;;;;2.52;0.50;;;;;;;27.13;36.10;99992.45;1705228;82;21160;-78
2022/06/13 11:04:07;;;;;;;0.93;0.78;;;;;;;27.13;36.24;99991.88;1691034;83;21194;-80
2022/06/13 11:06:54;;;;;;;4.60;4.25;;;;;;;27.16;36.57;99983.61;1696528;84;21200;-82
2022/06/13 11:09:35;;;;;;;0.70;0.30;;;;;;;27.12;36.24;99990.25;1651510;85;21689;-76
2022/06/13 11:12:06;;;;;;;1.00;0.30;;;;;;;27.10;35.16;99984.84;1657734;86;21063;-80
2022/06/13 11:23:47;;;;;;;1.40;1.25;;;;;;;27.58;34.70;99963.23;1706755;82;21110;-76
2022/06/13 11:29:02;;;;;;;1.57;0.68;;;;;;;27.83;33.95;99967.81;1712942;82;21077;-79
2022/06/13 11:31:28;;;;;;;0.90;0.23;;;;;;;27.98;33.21;99959.80;1721921;82;21541;-78
2022/06/13 11:34:16;;;;;;;2.12;0.25;;;;;;;28.08;32.72;99956.77;1713286;82;21192;-78
2022/06/13 11:36:48;;;;;;;1.30;0.60;;;;;;;28.07;32.98;99953.80;1675409;83;21079;-77
2022/06/13 11:39:18;;;;;;;1.25;0.30;;;;;;;28.09;33.19;99957.03;1682674;83;21500;-78
2022/06/13 11:41:46;;;;;;;1.55;0.50;;;;;;;28.20;33.29;99955.37;1663997;83;21572;-76
2022/06/13 11:44:19;;;;;;;0.30;0.25;;;;;;;28.24;32.84;99956.37;1698860;83;20994;-78
2022/06/13 11:47:01;;;;;;;1.50;0.45;;;;;;;28.29;32.99;99957.59;1690429;83;21141;-79
2022/06/13 11:49:42;;;;;;;1.22;0.25;;;;;;;28.36;32.95;99956.57;1683942;83;21103;-76
2022/06/13 11:53:35;;;;;;;3.50;0.68;;;;;;;28.43;32.54;99955.55;1686834;83;21060;-77
2022/06/13 11:54:54;;;;;;;0.90;0.42;;;;;;;28.44;31.85;99957.16;1709402;83;21564;-79
2022/06/13 11:57:39;;;;;;;0.47;0.30;;;;;;;28.35;31.79;99946.75;1712210;83;21042;-78
2022/06/13 12:00:20;;;;;;;1.75;0.30;;;;;;;28.22;32.13;99939.42;1709306;82;21101;-77
2022/06/13 12:02:57;;;;;;;0.72;0.35;;;;;;;28.14;32.51;99947.85;1676090;83;21117;-79
2022/06/13 12:05:39;;;;;;;2.20;0.42;;;;;;;28.10;32.31;99943.56;1652379;85;21033;-78
2022/06/13 12:08:20;;;;;;;0.40;0.40;;;;;;;28.08;32.54;99931.31;1684620;83;21109;-78
2022/06/13 12:11:08;;;;;;;1.37;0.50;;;;;;;28.10;32.81;99931.80;1670437;83;21014;-78
2022/06/13 12:13:46;;;;;;;0.45;0.30;;;;;;;28.09;32.32;99923.36;1669980;83;21049;-78
2022/06/13 12:16:30;;;;;;;1.15;0.90;;;;;;;28.05;32.50;99924.55;1678921;83;21074;-77
2022/06/13 12:19:20;;;;;;;0.65;0.50;;;;;;;28.07;32.08;99920.13;1673126;84;21141;-80
2022/06/13 12:21:53;;;;;;;2.95;0.40;;;;;;;28.05;31.43;99916.33;1680663;83;21237;-78
2022/06/13 12:24:43;;;;;;;0.65;0.30;;;;;;;27.99;31.32;99911.29;1681572;83;21084;-79
2022/06/13 12:27:22;;;;;;;3.50;0.40;;;;;;;27.94;31.05;99908.14;1670270;84;21134;-77
2022/06/13 12:30:00;;;;;;;0.55;0.20;;;;;;;27.92;31.05;99909.82;1643389;84;21605;-78
2022/06/13 12:32:38;;;;;;;0.50;0.25;;;;;;;27.93;31.03;99911.98;1659740;84;21077;-81
2022/06/13 12:35:49;;;;;;;1.40;0.40;;;;;;;27.90;29.83;99907.16;1672834;83;21676;-78
2022/06/13 12:38:44;;;;;;;0.68;0.20;;;;;;;27.82;30.18;99907.88;1655602;83;21552;-80
2022/06/13 12:41:20;;;;;;;0.65;0.20;;;;;;;27.76;29.71;99908.57;1684895;83;21151;-77
2022/06/13 12:44:24;;;;;;;2.43;0.50;;;;;;;27.72;29.33;99902.11;1649140;85;21034;-79